Scotland, PA (17254)

2:18 PM EDT on April 28, 2015 (GMT -0400)
Scot-Greene Estates | | Change Station
CLOSE
Current Station
Personal Weather Station
Location: Chambersburg, PA
Elevation: 725 ft
Nearby Weather Stations

Elev 725 ft 39.95 °N, 77.59 °W | Updated 2 minutes ago

Partly Cloudy
Partly Cloudy
64.1 °F
Feels Like 64.1 °F
N
8.0
Wind Variable Wind from North
Gusts 15.0 mph

Today
High -- | Low -- °F
--% Chance of Precip.
Yesterday
High -- | Low -- °F
Precip. -- in
6:14 AM 8:01 PM
Waxing Gibbous, 75% visible
Pressure 29.89 in
Visibility 10.0 miles
Clouds Mostly Cloudy 6000 ft
Dew Point 43 °F
Humidity 46%
Rainfall 0.00 in
Snow Depth Not available.
UV 5 out of 12
Pollen 11.10 out of 12
Air Quality Not available.
Flu Activity Sporadic
METAR KRYT 281753Z AUTO VRB05G15KT 10SM BKN060 17/03 A2989 RMK AO2 SLP121 T01720033 10178 20089 56010 $

More Conditions Fewer Conditions

Pressure 29.89 in
Visibility 10.0 miles
Clouds Mostly Cloudy 6000 ft
Dew Point 43 °F
Humidity 46%
Rainfall 0.00 in
Snow Depth Not available.
UV 5 out of 12
Pollen 11.10 out of 12
Air Quality Not available.
Flu Activity Sporadic
METAR KRYT 281753Z AUTO VRB05G15KT 10SM BKN060 17/03 A2989 RMK AO2 SLP121 T01720033 10178 20089 56010 $

More Conditions Fewer Conditions

10-Day Weather Forecast

Almanac

Astronomy

Apr. 28, 2015 Rise Set
Actual Time
Civil Twilight
Nautical Twilight
Astronomical Twilight
Moon
Length of Visible Light
Length of Day
Tomorrow will be .
, % of the Moon is Illuminated

Today's Extremes

State Highs State Lows

Community

WunderPhotos

Upload Photos

1,817,719 photos uploaded!

WunderBlogs® & News

Nearby

Air Quality

  Air Quality AQ Index Pollutant
Not available.

Snow Depth

Station Depth Elevation

Earthquake Activity

City Distance Mag. Time & Date
Minimum magnitude displayed is 2.5.

Coastal Water Temperatures

Place Temperature

Stations

Nearby Weather Stations

Station Location Temp. Windchill Dew Point Humidity Wind Precip. Elev Updated Type